createdAt,value
2019-01-18T00:00:01.081Z,94730.16
2019-01-18T01:02:05.160Z,94822.70
2019-01-18T01:07:06.454Z,94839.97
2019-01-18T01:12:07.748Z,94830.91
2019-01-18T01:17:09.065Z,94816.63
2019-01-18T01:22:11.114Z,94815.95
2019-01-18T01:27:15.928Z,94822.91
2019-01-18T02:35:37.290Z,94899.48
2019-01-18T02:40:38.567Z,94901.14
2019-01-18T02:45:44.913Z,94895.30
2019-01-18T02:50:46.227Z,94906.16
2019-01-18T02:55:47.493Z,94909.13
2019-01-18T04:04:10.351Z,94979.64
2019-01-18T04:09:11.662Z,94980.59
2019-01-18T04:14:13.686Z,94983.49
2019-01-18T04:19:15.070Z,94997.70
2019-01-18T04:24:16.364Z,94996.63
2019-01-18T04:29:17.641Z,95004.16
2019-01-18T05:31:19.277Z,95106.66
2019-01-18T05:36:20.565Z,95118.27
2019-01-18T05:41:21.830Z,95126.16
2019-01-18T05:46:23.113Z,95122.13
2019-01-18T05:51:24.408Z,95143.22
2019-01-18T05:56:26.456Z,95158.42
2019-01-18T07:04:48.805Z,95258.74
2019-01-18T07:09:50.855Z,95257.88
2019-01-18T07:14:55.494Z,95265.46
2019-01-18T07:19:56.959Z,95277.31
2019-01-18T07:24:58.273Z,95287.80
2019-01-18T07:29:59.574Z,95297.50
2019-01-18T08:32:03.199Z,95371.83
2019-01-18T08:37:04.566Z,95379.73
2019-01-18T08:42:05.976Z,95377.77
2019-01-18T08:47:08.946Z,95375.66
2019-01-18T08:52:10.300Z,95372.17
2019-01-18T08:57:11.677Z,95377.73
2019-01-18T10:05:35.424Z,95421.81
2019-01-18T10:10:37.550Z,95429.74
2019-01-18T10:15:38.897Z,95422.77
2019-01-18T10:20:40.319Z,95431.00
2019-01-18T10:25:41.764Z,95418.34
2019-01-18T11:34:04.922Z,95398.64
2019-01-18T11:39:06.961Z,95404.24
2019-01-18T11:44:08.253Z,95400.97
2019-01-18T11:49:09.532Z,95391.87
2019-01-18T11:54:11.541Z,95384.42
2019-01-18T11:59:12.804Z,95377.73
2019-01-18T13:01:14.894Z,95344.11
2019-01-18T13:06:16.187Z,95353.22
2019-01-18T13:11:17.481Z,95356.28
2019-01-18T13:16:18.763Z,95353.15
2019-01-18T13:21:20.058Z,95350.60
2019-01-18T13:26:22.128Z,95350.09
2019-01-18T14:34:43.329Z,95368.03
2019-01-18T14:39:44.673Z,95365.23
2019-01-18T14:44:46.738Z,95367.08
2019-01-18T14:49:48.675Z,95369.61
2019-01-18T14:54:50.004Z,95367.95
2019-01-18T14:59:51.418Z,95362.38
2019-01-18T16:01:54.050Z,95363.80
2019-01-18T16:06:55.453Z,95366.92
2019-01-18T16:11:56.725Z,95370.78
2019-01-18T16:16:58.067Z,95370.47
2019-01-18T16:21:59.342Z,95365.66
2019-01-18T16:27:00.640Z,95375.78
2019-01-18T16:32:01.956Z,95372.49
2019-01-18T16:37:03.254Z,95366.71
2019-01-18T16:42:06.217Z,95368.94
2019-01-18T16:47:09.614Z,95362.69
2019-01-18T16:52:11.792Z,95356.44
2019-01-18T16:57:13.841Z,95362.38
2019-01-18T17:02:16.685Z,95358.66
2019-01-18T17:07:36.483Z,95357.07
2019-01-18T17:12:38.282Z,95365.70
2019-01-18T17:17:54.209Z,95364.45
2019-01-18T17:22:55.509Z,95355.50
2019-01-18T17:27:57.529Z,95360.75
2019-01-18T17:32:58.804Z,95358.41
2019-01-18T17:38:00.122Z,95373.52
2019-01-18T17:43:05.900Z,95372.00
2019-01-18T17:48:19.108Z,95370.92
2019-01-18T17:53:23.206Z,95363.85
2019-01-18T17:58:33.627Z,95366.48
2019-01-18T18:03:51.245Z,95366.45
2019-01-18T18:09:08.381Z,95364.51
2019-01-18T18:26:05.342Z,95351.78
2019-01-18T18:36:53.802Z,95362.11
2019-01-18T18:42:03.776Z,95349.16
2019-01-18T18:47:27.842Z,95351.56
2019-01-18T18:58:20.538Z,95355.97
2019-01-18T19:03:32.477Z,95358.22
2019-01-18T19:08:40.585Z,95354.34
2019-01-18T19:14:15.753Z,95349.69
2019-01-18T19:19:37.964Z,95344.18
2019-01-18T19:24:47.101Z,95348.44
2019-01-18T19:35:37.576Z,95345.81
2019-01-18T19:41:07.924Z,95342.73
2019-01-18T19:46:13.025Z,95343.41
2019-01-18T19:51:42.097Z,95345.14
2019-01-18T19:56:52.444Z,95343.75
2019-01-18T20:02:25.635Z,95341.39
2019-01-18T20:07:34.684Z,95334.52
2019-01-18T20:12:45.685Z,95333.47
2019-01-18T20:17:55.750Z,95327.30
2019-01-18T20:23:07.920Z,95329.37
2019-01-18T20:28:24.704Z,95325.62
2019-01-18T20:39:33.780Z,95326.09
2019-01-18T20:50:41.829Z,95323.53
2019-01-18T20:56:07.670Z,95316.84
2019-01-18T21:01:16.656Z,95311.98
2019-01-18T21:18:29.027Z,95310.53
2019-01-18T21:23:51.145Z,95312.04
2019-01-18T21:35:17.973Z,95315.53
2019-01-18T21:40:27.974Z,95303.03
2019-01-18T21:51:39.644Z,95302.63
2019-01-18T21:56:49.935Z,95300.87
2019-01-18T22:01:55.661Z,95299.63
2019-01-18T22:07:19.077Z,95293.02
2019-01-18T22:18:28.506Z,95284.89
2019-01-18T22:23:32.198Z,95285.03
2019-01-18T22:28:57.291Z,95281.31
2019-01-18T22:34:07.201Z,95282.69
2019-01-18T22:39:35.362Z,95270.57
2019-01-18T22:44:44.397Z,95263.98
2019-01-18T22:49:47.544Z,95258.00
2019-01-18T22:54:59.663Z,95261.47
2019-01-18T23:00:18.180Z,95253.39
2019-01-18T23:31:04.500Z,95223.09
2019-01-18T23:36:12.103Z,95220.47
2019-01-18T23:41:31.942Z,95209.88
2019-01-18T23:46:47.156Z,95191.85
2019-01-18T23:52:01.437Z,95191.87
2019-01-18T23:57:09.557Z,95186.74
